createdAt,value
2017-10-30T00:02:21.018Z,15.30
2017-10-30T00:04:49.256Z,18.73
2017-10-30T00:07:18.278Z,17.90
2017-10-30T00:09:46.531Z,21.10
2017-10-30T00:12:15.558Z,20.03
2017-10-30T00:14:43.838Z,16.83
2017-10-30T00:17:12.088Z,11.10
2017-10-30T00:19:41.105Z,17.50
2017-10-30T00:22:09.388Z,25.23
2017-10-30T00:24:37.719Z,19.67
2017-10-30T00:27:05.971Z,15.90
2017-10-30T00:29:34.258Z,15.03
2017-10-30T00:32:02.524Z,18.30
2017-10-30T00:34:32.406Z,19.97
2017-10-30T00:37:01.445Z,24.30
2017-10-30T00:39:29.687Z,20.10
2017-10-30T00:41:58.724Z,20.03
2017-10-30T00:44:27.006Z,16.27
2017-10-30T00:46:55.292Z,16.53
2017-10-30T00:49:23.574Z,16.07
2017-10-30T00:51:51.831Z,18.20
2017-10-30T00:54:20.084Z,13.97
2017-10-30T00:56:49.106Z,20.07
2017-10-30T00:59:17.423Z,19.67
2017-10-30T01:01:45.682Z,18.03
2017-10-30T01:04:13.944Z,18.83
2017-10-30T01:06:43.075Z,18.70
2017-10-30T01:09:11.324Z,18.73
2017-10-30T01:11:40.342Z,18.10
2017-10-30T01:14:08.596Z,19.93
2017-10-30T01:16:37.615Z,22.83
2017-10-30T01:19:06.396Z,16.70
2017-10-30T01:21:34.710Z,20.90
2017-10-30T01:24:02.954Z,17.20
2017-10-30T01:26:31.979Z,16.50
2017-10-30T01:29:00.273Z,17.23
2017-10-30T01:31:28.528Z,20.83
2017-10-30T01:33:56.775Z,11.03
2017-10-30T01:36:25.025Z,17.20
2017-10-30T01:38:53.259Z,21.30
2017-10-30T01:41:22.282Z,17.30
2017-10-30T01:43:50.578Z,12.70
2017-10-30T01:46:18.863Z,15.50
2017-10-30T01:48:47.135Z,21.57
2017-10-30T01:51:15.414Z,20.83
2017-10-30T01:53:43.700Z,20.17
2017-10-30T01:56:11.959Z,15.93
2017-10-30T01:58:40.200Z,12.10
2017-10-30T02:01:08.444Z,16.83
2017-10-30T02:03:36.700Z,13.53
2017-10-30T02:06:05.012Z,18.40
2017-10-30T02:08:33.379Z,15.40
2017-10-30T02:11:01.616Z,19.10
2017-10-30T02:13:30.671Z,20.63
2017-10-30T02:15:58.943Z,15.93
2017-10-30T02:18:27.522Z,17.23
2017-10-30T02:20:55.774Z,13.87
2017-10-30T02:23:24.819Z,13.77
2017-10-30T02:25:53.088Z,20.03
2017-10-30T02:28:21.378Z,15.40
2017-10-30T02:30:49.616Z,23.23
2017-10-30T02:33:18.655Z,19.90
2017-10-30T02:35:46.896Z,17.80
2017-10-30T02:38:15.159Z,12.70
2017-10-30T02:40:43.397Z,14.50
2017-10-30T02:43:11.671Z,19.90
2017-10-30T02:45:39.921Z,21.23
2017-10-30T02:48:08.939Z,20.73
2017-10-30T02:50:37.237Z,23.27
2017-10-30T02:53:05.511Z,18.07
2017-10-30T02:55:33.803Z,16.90
2017-10-30T02:58:02.075Z,18.33
2017-10-30T03:00:30.360Z,16.67
2017-10-30T03:02:58.624Z,18.50
2017-10-30T03:05:26.864Z,14.50
2017-10-30T03:07:55.127Z,20.43
2017-10-30T03:10:23.354Z,19.53
2017-10-30T03:12:51.656Z,17.13
2017-10-30T03:15:19.900Z,15.93
2017-10-30T03:17:48.932Z,18.80
2017-10-30T03:20:17.224Z,24.57
2017-10-30T03:22:45.509Z,15.13
2017-10-30T03:25:13.749Z,16.60
2017-10-30T03:27:42.759Z,9.57
2017-10-30T03:30:17.106Z,16.07
2017-10-30T03:32:45.375Z,14.77
2017-10-30T03:35:13.666Z,19.43
2017-10-30T03:37:41.923Z,13.23
2017-10-30T03:40:10.167Z,13.47
2017-10-30T03:42:38.422Z,17.60
2017-10-30T03:45:06.690Z,9.87
2017-10-30T03:47:34.950Z,10.30
2017-10-30T03:50:03.211Z,14.13
2017-10-30T03:52:32.231Z,17.80
2017-10-30T03:55:00.547Z,21.57
2017-10-30T03:57:28.790Z,11.80
2017-10-30T03:59:57.087Z,16.80
2017-10-30T04:02:25.364Z,9.23
2017-10-30T04:04:53.651Z,14.33
2017-10-30T04:07:21.912Z,15.30
2017-10-30T04:09:50.209Z,15.30
2017-10-30T04:12:18.475Z,15.43
2017-10-30T04:14:46.714Z,21.10
2017-10-30T04:17:15.057Z,15.73
2017-10-30T04:19:43.349Z,15.33
2017-10-30T04:22:11.614Z,15.23
2017-10-30T04:24:39.858Z,11.90
2017-10-30T04:27:08.879Z,17.33
2017-10-30T04:29:37.496Z,17.47
2017-10-30T04:32:05.747Z,9.93
2017-10-30T04:34:33.988Z,16.90
2017-10-30T04:37:02.259Z,14.80
2017-10-30T04:39:30.503Z,20.27
2017-10-30T04:41:58.864Z,11.80
2017-10-30T04:44:27.278Z,14.10
2017-10-30T04:46:55.554Z,12.97
2017-10-30T04:49:23.983Z,11.87
2017-10-30T04:51:52.318Z,6.23
2017-10-30T04:54:21.418Z,12.73
2017-10-30T04:56:49.670Z,14.20
2017-10-30T04:59:18.707Z,17.63
2017-10-30T05:01:46.960Z,15.63
2017-10-30T05:04:15.980Z,11.30
2017-10-30T05:06:45.362Z,11.40
2017-10-30T05:09:13.694Z,13.67
2017-10-30T05:11:41.947Z,12.33
2017-10-30T05:14:10.250Z,13.60
2017-10-30T05:16:38.484Z,17.57
2017-10-30T05:19:07.509Z,13.77
2017-10-30T05:21:35.790Z,15.33
2017-10-30T05:24:04.042Z,9.70
2017-10-30T05:26:33.060Z,12.30
2017-10-30T05:29:02.194Z,15.20
2017-10-30T05:31:30.435Z,11.50
2017-10-30T05:33:58.715Z,18.07
2017-10-30T05:36:26.963Z,10.43
2017-10-30T05:38:55.209Z,15.10
2017-10-30T05:41:24.300Z,13.87
2017-10-30T05:43:52.587Z,11.87
2017-10-30T05:46:20.855Z,9.97
2017-10-30T05:48:49.163Z,11.03
2017-10-30T05:51:17.399Z,16.03
2017-10-30T05:53:45.704Z,15.37
2017-10-30T05:56:13.959Z,14.17
2017-10-30T05:58:42.207Z,15.40
2017-10-30T06:01:10.473Z,24.67
2017-10-30T06:03:38.835Z,14.57
2017-10-30T06:06:07.201Z,17.63
2017-10-30T06:08:35.447Z,17.60
2017-10-30T06:11:04.487Z,20.30
2017-10-30T06:13:32.727Z,16.80
2017-10-30T06:16:02.394Z,11.90
2017-10-30T06:18:30.669Z,16.03
2017-10-30T06:20:58.928Z,17.10
2017-10-30T06:23:27.172Z,21.63
2017-10-30T06:25:55.515Z,20.00
2017-10-30T06:28:23.850Z,17.90
2017-10-30T06:30:54.155Z,12.23
2017-10-30T06:33:22.397Z,12.80
2017-10-30T06:35:50.677Z,15.90
2017-10-30T06:38:18.973Z,18.03
2017-10-30T06:40:47.243Z,14.60
2017-10-30T06:43:15.532Z,14.37
2017-10-30T06:45:43.802Z,15.30
2017-10-30T06:48:12.806Z,15.83
2017-10-30T06:50:41.047Z,11.30
2017-10-30T06:53:10.075Z,14.73
2017-10-30T06:55:38.327Z,13.70
2017-10-30T06:58:06.654Z,15.07
2017-10-30T07:00:34.895Z,14.97
2017-10-30T07:03:03.923Z,14.97
2017-10-30T07:05:32.226Z,22.83
2017-10-30T07:08:00.498Z,12.73
2017-10-30T07:10:29.771Z,12.43
2017-10-30T07:12:58.188Z,18.70
2017-10-30T07:15:26.498Z,15.70
2017-10-30T07:17:54.753Z,17.03
2017-10-30T07:20:23.002Z,11.70
2017-10-30T07:22:51.263Z,13.77
2017-10-30T07:25:20.314Z,10.93
2017-10-30T07:27:48.594Z,13.87
2017-10-30T07:30:16.834Z,14.17
2017-10-30T07:32:45.871Z,15.50
2017-10-30T07:35:14.122Z,15.60
2017-10-30T07:37:43.147Z,20.83
2017-10-30T07:40:11.395Z,11.33
2017-10-30T07:42:40.433Z,14.33
2017-10-30T07:45:08.699Z,13.90
2017-10-30T07:47:37.005Z,16.77
2017-10-30T07:50:05.276Z,13.60
2017-10-30T07:52:33.603Z,14.77
2017-10-30T07:55:01.956Z,18.13
2017-10-30T07:57:30.214Z,16.53
2017-10-30T07:59:58.485Z,12.80
2017-10-30T08:02:26.801Z,17.17
2017-10-30T08:04:55.063Z,17.83
2017-10-30T08:07:23.348Z,16.00
2017-10-30T08:09:51.602Z,20.93
2017-10-30T08:12:19.849Z,26.60
2017-10-30T08:14:49.623Z,15.07
2017-10-30T08:17:17.877Z,14.77
2017-10-30T08:19:47.258Z,13.90
2017-10-30T08:22:15.943Z,12.07
2017-10-30T08:24:44.291Z,7.83
2017-10-30T08:27:12.535Z,15.43
2017-10-30T08:29:40.867Z,15.20
2017-10-30T08:32:09.119Z,12.57
2017-10-30T08:34:37.415Z,8.83
2017-10-30T08:37:05.691Z,7.80
2017-10-30T08:39:33.959Z,16.83
2017-10-30T08:42:02.221Z,11.07
2017-10-30T08:44:31.351Z,13.83
2017-10-30T08:46:59.599Z,13.37
2017-10-30T08:49:28.625Z,11.47
2017-10-30T08:51:56.891Z,11.80
2017-10-30T08:54:25.163Z,12.00
2017-10-30T08:56:53.429Z,11.57
2017-10-30T08:59:22.642Z,16.23
2017-10-30T09:01:51.651Z,8.00
2017-10-30T09:04:19.912Z,8.73
2017-10-30T09:06:48.935Z,10.10
2017-10-30T09:09:17.231Z,17.17
2017-10-30T09:11:45.483Z,9.63
2017-10-30T09:14:13.732Z,10.07
2017-10-30T09:16:42.622Z,12.57
2017-10-30T09:19:10.979Z,13.53
2017-10-30T09:21:39.242Z,12.03
2017-10-30T09:24:07.493Z,13.27
2017-10-30T09:26:36.544Z,15.47
2017-10-30T09:29:04.818Z,8.07
2017-10-30T09:31:33.079Z,11.53
2017-10-30T09:34:01.384Z,12.90
2017-10-30T09:36:29.668Z,14.20
2017-10-30T09:38:57.950Z,9.30
2017-10-30T09:41:26.206Z,15.27
2017-10-30T09:43:54.454Z,10.73
2017-10-30T09:46:23.487Z,11.07
2017-10-30T09:48:51.790Z,17.23
2017-10-30T09:51:20.075Z,14.40
2017-10-30T09:53:48.450Z,7.97
2017-10-30T09:56:16.708Z,6.87
2017-10-30T09:58:45.015Z,15.17
2017-10-30T10:01:13.310Z,7.70
2017-10-30T10:03:41.569Z,12.90
2017-10-30T10:06:09.847Z,12.47
2017-10-30T10:08:38.134Z,15.80
2017-10-30T10:11:06.775Z,9.90
2017-10-30T10:13:35.102Z,11.07
2017-10-30T10:16:03.354Z,6.70
2017-10-30T10:18:32.373Z,5.93
2017-10-30T10:21:00.615Z,7.23
2017-10-30T10:23:29.644Z,8.90
2017-10-30T10:25:57.879Z,7.70
2017-10-30T10:28:26.132Z,7.80
2017-10-30T10:30:54.378Z,7.20
2017-10-30T10:33:23.400Z,9.07
2017-10-30T10:35:51.644Z,9.43
2017-10-30T10:38:20.666Z,4.07
2017-10-30T10:40:48.916Z,8.53
2017-10-30T10:43:17.171Z,11.13
2017-10-30T10:45:45.414Z,8.17
2017-10-30T10:48:13.676Z,8.43
2017-10-30T10:50:42.684Z,8.90
2017-10-30T10:53:10.938Z,10.77
2017-10-30T10:55:39.951Z,8.53
2017-10-30T10:58:08.978Z,12.77
2017-10-30T11:00:37.224Z,9.97
2017-10-30T11:03:06.244Z,7.73
2017-10-30T11:05:34.492Z,6.87
2017-10-30T11:08:02.831Z,6.43
2017-10-30T11:10:31.110Z,6.37
2017-10-30T11:12:59.398Z,9.80
2017-10-30T11:15:27.659Z,10.00
2017-10-30T11:17:55.956Z,10.40
2017-10-30T11:20:24.221Z,7.70
2017-10-30T11:22:52.463Z,7.50
2017-10-30T11:25:21.487Z,6.47
2017-10-30T11:27:49.755Z,8.20
2017-10-30T11:30:18.778Z,8.83
2017-10-30T11:32:47.062Z,7.60
2017-10-30T11:35:15.350Z,5.70
2017-10-30T11:37:43.622Z,3.60
2017-10-30T11:40:11.888Z,4.27
2017-10-30T11:42:40.192Z,8.50
2017-10-30T11:45:08.458Z,5.60
2017-10-30T11:47:36.700Z,11.80
2017-10-30T11:50:05.721Z,6.73
2017-10-30T11:52:34.036Z,6.17
2017-10-30T11:55:02.288Z,7.23
2017-10-30T11:57:30.531Z,5.33
2017-10-30T11:59:58.795Z,7.50
2017-10-30T12:02:27.039Z,8.17
2017-10-30T12:04:55.304Z,5.60
2017-10-30T12:07:23.543Z,5.93
2017-10-30T12:09:51.808Z,5.13
2017-10-30T12:12:20.077Z,7.77
2017-10-30T12:14:48.327Z,6.70
2017-10-30T12:17:17.460Z,5.27
2017-10-30T12:19:45.719Z,6.63
2017-10-30T12:22:14.002Z,6.87
2017-10-30T12:24:42.996Z,7.17
2017-10-30T12:27:11.836Z,4.60
2017-10-30T12:29:40.184Z,7.50
2017-10-30T12:32:08.467Z,7.40
2017-10-30T12:34:36.743Z,5.97
2017-10-30T12:37:04.991Z,9.30
2017-10-30T12:39:34.015Z,8.47
2017-10-30T12:42:02.312Z,6.10
2017-10-30T12:44:30.582Z,4.23
2017-10-30T12:46:58.826Z,6.83
2017-10-30T12:49:27.859Z,5.20
2017-10-30T12:51:56.099Z,5.23
2017-10-30T12:54:25.154Z,9.20
2017-10-30T12:56:53.412Z,7.30
2017-10-30T12:59:21.659Z,5.23
2017-10-30T13:01:50.675Z,5.67
2017-10-30T13:04:19.804Z,10.73
2017-10-30T13:06:48.117Z,5.40
2017-10-30T13:09:16.448Z,7.73
2017-10-30T13:11:44.692Z,7.23
2017-10-30T13:14:13.026Z,6.40
2017-10-30T13:16:41.312Z,7.10
2017-10-30T13:19:09.687Z,5.63
2017-10-30T13:21:37.972Z,10.57
2017-10-30T13:24:06.237Z,5.40
2017-10-30T13:26:34.526Z,8.77
2017-10-30T13:29:02.791Z,5.00
2017-10-30T13:31:31.046Z,5.30
2017-10-30T13:33:59.379Z,9.17
2017-10-30T13:36:27.660Z,9.10
2017-10-30T13:38:55.933Z,7.70
2017-10-30T13:41:24.188Z,14.10
2017-10-30T13:43:53.193Z,5.77
2017-10-30T13:46:22.418Z,6.50
2017-10-30T13:48:50.660Z,7.23
2017-10-30T13:51:19.683Z,7.53
2017-10-30T13:53:47.942Z,9.93
2017-10-30T13:56:17.470Z,10.57
2017-10-30T13:58:45.827Z,10.67
2017-10-30T14:01:14.165Z,13.23
2017-10-30T14:03:42.406Z,10.07
2017-10-30T14:06:11.439Z,7.87
2017-10-30T14:08:39.670Z,11.43
2017-10-30T14:11:08.719Z,8.80
2017-10-30T14:13:36.989Z,7.10
2017-10-30T14:16:05.254Z,7.93
2017-10-30T14:18:33.549Z,7.53
2017-10-30T14:21:01.805Z,5.97
2017-10-30T14:23:30.806Z,10.27
2017-10-30T14:25:59.070Z,5.43
2017-10-30T14:28:28.115Z,5.90
2017-10-30T14:30:56.391Z,8.37
2017-10-30T14:33:24.626Z,7.90
2017-10-30T14:35:53.667Z,8.90
2017-10-30T14:38:21.909Z,8.13
2017-10-30T14:40:50.941Z,7.00
2017-10-30T14:43:19.179Z,7.23
2017-10-30T14:45:48.202Z,7.13
2017-10-30T14:48:16.451Z,9.73
2017-10-30T14:50:45.000Z,6.13
2017-10-30T14:53:13.271Z,7.93
2017-10-30T14:55:41.554Z,8.23
2017-10-30T14:58:10.667Z,5.03
2017-10-30T15:00:38.936Z,8.47
2017-10-30T15:03:07.178Z,5.03
2017-10-30T15:05:35.442Z,7.03
2017-10-30T15:08:03.728Z,12.77
2017-10-30T15:10:32.751Z,5.53
2017-10-30T15:13:00.993Z,8.07
2017-10-30T15:15:29.296Z,7.70
2017-10-30T15:17:57.535Z,4.57
2017-10-30T15:20:26.617Z,7.63
2017-10-30T15:22:54.876Z,5.50
2017-10-30T15:25:23.149Z,4.83
2017-10-30T15:27:51.430Z,9.53
2017-10-30T15:30:19.694Z,5.60
2017-10-30T15:32:48.001Z,7.20
2017-10-30T15:35:16.286Z,7.40
2017-10-30T15:37:44.550Z,7.90
2017-10-30T15:40:12.826Z,8.33
2017-10-30T15:42:41.079Z,7.67
2017-10-30T15:45:10.113Z,9.53
2017-10-30T15:47:38.354Z,5.30
2017-10-30T15:50:07.393Z,6.50
2017-10-30T15:52:35.639Z,9.03
2017-10-30T15:55:04.674Z,6.53
2017-10-30T15:57:32.921Z,7.67
2017-10-30T16:00:01.947Z,8.90
2017-10-30T16:02:30.205Z,7.80
2017-10-30T16:04:59.235Z,9.00
2017-10-30T16:07:27.491Z,7.10
2017-10-30T16:09:58.958Z,5.07
2017-10-30T16:12:27.218Z,7.23
2017-10-30T16:14:56.256Z,6.90
2017-10-30T16:17:24.502Z,8.50
2017-10-30T16:19:53.531Z,10.50
2017-10-30T16:22:21.787Z,9.43
2017-10-30T16:24:50.067Z,10.80
2017-10-30T16:27:19.100Z,9.87
2017-10-30T16:29:47.392Z,10.27
2017-10-30T16:32:15.646Z,6.70
2017-10-30T16:34:43.936Z,5.63
2017-10-30T16:37:12.231Z,5.70
2017-10-30T16:39:40.480Z,4.63
2017-10-30T16:42:08.745Z,5.97
2017-10-30T16:44:37.963Z,5.27
2017-10-30T16:47:06.231Z,7.80
2017-10-30T16:49:35.251Z,6.80
2017-10-30T16:52:03.527Z,8.93
2017-10-30T16:54:31.782Z,11.83
2017-10-30T16:57:00.824Z,11.67
2017-10-30T16:59:29.140Z,5.47
2017-10-30T17:01:57.803Z,9.43
2017-10-30T17:04:26.059Z,8.37
2017-10-30T17:06:54.329Z,8.60
2017-10-30T17:09:22.594Z,13.07
2017-10-30T17:11:51.635Z,7.60
2017-10-30T17:14:19.922Z,4.53
2017-10-30T17:16:48.198Z,6.57
2017-10-30T17:19:16.441Z,10.80
2017-10-30T17:21:45.477Z,5.80
2017-10-30T17:24:13.720Z,9.33
2017-10-30T17:26:42.764Z,9.30
2017-10-30T17:29:11.004Z,8.10
2017-10-30T17:31:40.028Z,8.10
2017-10-30T17:34:08.284Z,6.20
2017-10-30T17:36:37.312Z,7.67
2017-10-30T17:39:05.588Z,9.10
2017-10-30T17:41:33.862Z,5.73
2017-10-30T17:44:02.118Z,13.33
2017-10-30T17:46:31.149Z,13.90
2017-10-30T17:48:59.431Z,7.30
2017-10-30T17:51:27.696Z,8.63
2017-10-30T17:53:55.948Z,6.40
2017-10-30T17:56:24.967Z,8.17
2017-10-30T17:58:53.226Z,12.02
2017-10-30T18:01:21.503Z,9.33
2017-10-30T18:03:49.752Z,10.20
2017-10-30T18:06:18.015Z,5.90
2017-10-30T18:08:46.282Z,9.50
2017-10-30T18:11:14.555Z,12.70
2017-10-30T18:13:42.816Z,11.37
2017-10-30T18:16:13.121Z,5.70
2017-10-30T18:18:41.383Z,12.70
2017-10-30T18:21:09.650Z,10.70
2017-10-30T18:23:37.929Z,8.83
2017-10-30T18:26:06.212Z,10.00
2017-10-30T18:28:34.486Z,11.07
2017-10-30T18:31:02.782Z,9.90
2017-10-30T18:33:31.032Z,30.63
2017-10-30T18:35:59.312Z,11.23
2017-10-30T18:38:28.504Z,6.10
2017-10-30T18:40:56.746Z,10.60
2017-10-30T18:43:24.995Z,7.83
2017-10-30T18:45:53.263Z,7.70
2017-10-30T18:48:21.524Z,10.13
2017-10-30T18:50:50.602Z,12.17
2017-10-30T18:53:18.830Z,6.83
2017-10-30T18:55:47.097Z,11.10
2017-10-30T18:58:15.353Z,6.70
2017-10-30T19:00:43.658Z,10.03
2017-10-30T19:03:11.971Z,14.03
2017-10-30T19:05:40.235Z,8.97
2017-10-30T19:08:08.500Z,7.37
2017-10-30T19:10:37.507Z,6.43
2017-10-30T19:13:05.784Z,6.90
2017-10-30T19:15:34.053Z,8.43
2017-10-30T19:18:03.106Z,9.70
2017-10-30T19:20:31.379Z,6.60
2017-10-30T19:22:59.641Z,11.53
2017-10-30T19:25:27.935Z,16.20
2017-10-30T19:27:56.209Z,15.70
2017-10-30T19:30:24.467Z,9.67
2017-10-30T19:32:52.729Z,9.23
2017-10-30T19:35:21.738Z,13.17
2017-10-30T19:37:50.002Z,10.77
2017-10-30T19:40:19.033Z,12.33
2017-10-30T19:42:47.303Z,14.20
2017-10-30T19:45:15.580Z,8.93
2017-10-30T19:47:44.603Z,9.40
2017-10-30T19:50:12.864Z,7.23
2017-10-30T19:52:41.990Z,14.40
2017-10-30T19:55:10.238Z,11.67
2017-10-30T19:57:38.512Z,10.20
2017-10-30T20:00:07.608Z,12.43
2017-10-30T20:02:36.642Z,13.20
2017-10-30T20:08:29.550Z,11.43
2017-10-30T20:13:57.598Z,15.73
2017-10-30T20:16:26.625Z,11.70
2017-10-30T20:18:55.371Z,15.13
2017-10-30T20:21:23.687Z,10.60
2017-10-30T20:23:51.941Z,13.43
2017-10-30T20:26:21.014Z,10.80
2017-10-30T20:28:49.364Z,16.03
2017-10-30T20:31:17.633Z,12.80
2017-10-30T20:33:45.874Z,8.67
2017-10-30T20:36:14.131Z,14.10
2017-10-30T20:38:42.376Z,9.67
2017-10-30T20:41:10.636Z,13.10
2017-10-30T20:43:39.653Z,12.57
2017-10-30T20:46:07.917Z,11.03
2017-10-30T20:48:36.934Z,17.00
2017-10-30T20:51:05.191Z,9.60
2017-10-30T20:53:34.203Z,12.07
2017-10-30T20:56:02.525Z,12.03
2017-10-30T20:58:30.768Z,14.50
2017-10-30T21:00:59.024Z,10.20
2017-10-30T21:03:28.045Z,18.60
2017-10-30T21:05:56.286Z,10.73
2017-10-30T21:08:24.554Z,25.83
2017-10-30T21:10:54.342Z,10.40
2017-10-30T21:13:22.595Z,14.20
2017-10-30T21:15:50.834Z,14.43
2017-10-30T21:18:19.090Z,14.50
2017-10-30T21:20:48.486Z,15.23
2017-10-30T21:23:16.744Z,9.87
2017-10-30T21:25:45.751Z,11.23
2017-10-30T21:28:14.007Z,17.47
2017-10-30T21:30:43.759Z,15.17
2017-10-30T21:33:12.808Z,10.33
2017-10-30T21:35:41.048Z,12.00
2017-10-30T21:38:09.304Z,13.73
2017-10-30T21:40:37.549Z,13.27
2017-10-30T21:43:05.806Z,11.13
2017-10-30T21:45:34.047Z,10.43
2017-10-30T21:48:02.318Z,11.67
2017-10-30T21:50:30.566Z,10.53
2017-10-30T21:52:58.946Z,7.13
2017-10-30T21:55:27.241Z,13.33
2017-10-30T21:57:55.500Z,14.13
2017-10-30T22:00:23.748Z,17.00
2017-10-30T22:02:51.998Z,7.00
2017-10-30T22:05:21.007Z,15.47
2017-10-30T22:07:49.267Z,14.60
2017-10-30T22:10:18.712Z,16.07
2017-10-30T22:12:46.977Z,14.37
2017-10-30T22:15:16.014Z,18.10
2017-10-30T22:17:49.169Z,19.30
2017-10-30T22:20:18.174Z,16.60
2017-10-30T22:22:46.430Z,15.80
2017-10-30T22:25:15.444Z,28.40
2017-10-30T22:27:44.471Z,21.70
2017-10-30T22:30:12.729Z,19.20
2017-10-30T22:32:41.863Z,19.90
2017-10-30T22:35:10.119Z,14.53
2017-10-30T22:37:39.312Z,17.80
2017-10-30T22:40:07.583Z,13.17
2017-10-30T22:42:36.606Z,15.90
2017-10-30T22:45:04.867Z,12.67
2017-10-30T22:47:33.888Z,12.13
2017-10-30T22:50:02.143Z,14.77
2017-10-30T22:52:31.178Z,16.53
2017-10-30T22:54:59.424Z,12.70
2017-10-30T22:57:28.445Z,14.17
2017-10-30T22:59:56.689Z,16.33
2017-10-30T23:02:25.723Z,13.83
2017-10-30T23:04:53.966Z,15.33
2017-10-30T23:07:22.238Z,20.03
2017-10-30T23:09:50.491Z,16.30
2017-10-30T23:12:18.750Z,15.00
2017-10-30T23:14:47.037Z,14.80
2017-10-30T23:17:15.302Z,18.93
2017-10-30T23:19:43.565Z,13.83
2017-10-30T23:22:11.806Z,16.53
2017-10-30T23:24:40.081Z,14.77
2017-10-30T23:27:08.346Z,13.77
2017-10-30T23:29:36.632Z,11.60
2017-10-30T23:32:04.889Z,27.63
2017-10-30T23:34:33.135Z,17.23
2017-10-30T23:37:02.166Z,35.67
2017-10-30T23:39:30.419Z,24.10
2017-10-30T23:41:59.234Z,23.93
2017-10-30T23:44:27.482Z,23.20
2017-10-30T23:46:55.761Z,10.87
2017-10-30T23:49:23.992Z,16.87
2017-10-30T23:51:52.293Z,17.17
2017-10-30T23:54:25.437Z,17.60
2017-10-30T23:56:53.712Z,10.57
2017-10-30T23:59:21.941Z,21.33
